Newport, Ohio
Current Conditions -  °F | °C
As of 12:53 PM on Monday 26 Jan 2015 (Local Time) from KPKB Reporting Station
Light Snow Light Snow  
Wind Chill: 18°   Ceiling: 1300
Heat Index: 27°   Visibility: 4mi
Dew Point: 22°   Wind: 9mph
Humidity: 81%   Direction: 310°NW
Pressure: 29.78"   Gusts: NA
Location:  39.39°N, 81.23°W
Report Text: KPKB 261753Z 31008KT 4SM -SN OVC013 M03/M06 A2978 RMK AO2 SLP091 P0000 60012 T10281056 10006 21033 50011
Loading
Personal Weather Stations






























Interactive Weather Map New forecast layout! Learn more

10-Day Weather Forecast

Advertisements
Track Severe Weather on mobile